createdAt,value
2024-02-14T00:00:38.393Z,63.67
2024-02-14T00:03:30.272Z,55.05
2024-02-14T00:06:02.268Z,55.44
2024-02-14T00:08:34.228Z,57.64
2024-02-14T00:11:06.308Z,59.37
2024-02-14T00:13:36.659Z,62.25
2024-02-14T00:16:10.808Z,67.22
2024-02-14T00:18:42.831Z,61.31
2024-02-14T00:21:14.986Z,54.33
2024-02-14T00:23:45.828Z,54.56
2024-02-14T00:26:16.650Z,55.94
2024-02-14T00:28:46.994Z,57.45
2024-02-14T00:31:18.923Z,59.50
2024-02-14T00:33:49.431Z,60.42
2024-02-14T00:36:21.616Z,61.87
2024-02-14T00:38:52.716Z,67.05
2024-02-14T00:41:24.959Z,61.33
2024-02-14T00:43:55.299Z,53.92
2024-02-14T00:46:27.299Z,54.65
2024-02-14T00:49:00.894Z,56.87
2024-02-14T00:51:33.009Z,59.17
2024-02-14T00:54:05.056Z,61.62
2024-02-14T00:56:37.320Z,64.82
2024-02-14T00:59:09.822Z,61.50
2024-02-14T01:01:42.350Z,53.42
2024-02-14T01:04:14.341Z,54.07
2024-02-14T01:06:46.391Z,57.36
2024-02-14T01:09:18.507Z,58.29
2024-02-14T01:11:50.576Z,60.33
2024-02-14T01:14:23.655Z,64.84
2024-02-14T01:16:56.059Z,64.28
2024-02-14T01:19:29.876Z,56.23
2024-02-14T01:22:01.848Z,54.01
2024-02-14T01:24:33.642Z,56.23
2024-02-14T01:27:06.840Z,57.48
2024-02-14T01:29:38.800Z,58.84
2024-02-14T01:32:10.909Z,59.74
2024-02-14T01:34:43.783Z,59.14
2024-02-14T01:37:15.730Z,60.84
2024-02-14T01:39:45.978Z,66.66
2024-02-14T01:42:17.895Z,66.84
2024-02-14T01:44:48.181Z,58.27
2024-02-14T01:47:21.109Z,53.07
2024-02-14T01:49:53.144Z,53.63
2024-02-14T01:52:25.086Z,55.37
2024-02-14T01:54:57.328Z,57.03
2024-02-14T01:57:30.011Z,57.99
2024-02-14T02:00:05.902Z,59.37
2024-02-14T02:02:39.170Z,60.02
2024-02-14T02:05:11.648Z,60.91
2024-02-14T02:07:44.972Z,66.44
2024-02-14T02:10:17.623Z,65.42
2024-02-14T02:12:49.944Z,57.36
2024-02-14T02:15:21.870Z,53.30
2024-02-14T02:17:54.738Z,54.98
2024-02-14T02:20:29.498Z,56.91
2024-02-14T02:23:01.836Z,59.35
2024-02-14T02:25:33.695Z,60.08
2024-02-14T02:28:06.106Z,62.28
2024-02-14T02:30:38.579Z,68.22
2024-02-14T02:33:11.029Z,65.70
2024-02-14T02:35:46.468Z,56.96
2024-02-14T02:38:18.839Z,53.39
2024-02-14T02:40:50.836Z,54.92
2024-02-14T02:43:23.185Z,56.78
2024-02-14T02:45:55.269Z,57.94
2024-02-14T02:48:27.332Z,60.02
2024-02-14T02:51:00.303Z,61.39
2024-02-14T02:53:32.481Z,67.37
2024-02-14T02:56:04.918Z,65.60
2024-02-14T02:58:37.399Z,57.43
2024-02-14T03:01:13.228Z,53.91
2024-02-14T03:03:45.481Z,55.53
2024-02-14T03:06:17.553Z,57.41
2024-02-14T03:08:50.335Z,58.87
2024-02-14T03:11:22.329Z,60.41
2024-02-14T03:13:54.389Z,61.68
2024-02-14T03:16:26.064Z,67.65
2024-02-14T03:19:00.130Z,67.07
2024-02-14T03:21:33.614Z,58.90
2024-02-14T03:24:06.442Z,53.11
2024-02-14T03:26:39.510Z,54.45
2024-02-14T03:29:11.548Z,56.43
2024-02-14T03:31:45.361Z,58.50
2024-02-14T03:34:17.412Z,60.52
2024-02-14T03:36:49.396Z,61.47
2024-02-14T03:39:21.472Z,67.38
2024-02-14T03:41:54.323Z,65.69
2024-02-14T03:44:26.252Z,57.55
2024-02-14T03:46:58.167Z,53.28
2024-02-14T03:49:28.496Z,54.59
2024-02-14T03:52:02.321Z,56.23
2024-02-14T03:54:34.210Z,58.32
2024-02-14T03:57:08.163Z,59.95
2024-02-14T03:59:43.313Z,61.01
2024-02-14T04:02:15.692Z,66.86
2024-02-14T04:04:47.896Z,64.65
2024-02-14T04:07:19.801Z,56.58
2024-02-14T04:09:51.839Z,54.25
2024-02-14T04:12:22.132Z,56.19
2024-02-14T04:14:54.059Z,57.66
2024-02-14T04:17:25.335Z,60.00
2024-02-14T04:19:57.307Z,60.04
2024-02-14T04:22:29.170Z,61.80
2024-02-14T04:25:01.104Z,68.25
2024-02-14T04:27:31.442Z,66.79
2024-02-14T04:30:05.005Z,58.87
2024-02-14T04:32:37.114Z,53.57
2024-02-14T04:35:10.028Z,55.12
2024-02-14T04:37:44.526Z,57.82
2024-02-14T04:40:17.507Z,59.21
2024-02-14T04:42:50.365Z,60.69
2024-02-14T04:45:22.333Z,66.19
2024-02-14T04:47:54.420Z,64.75
2024-02-14T04:50:25.120Z,55.62
2024-02-14T04:52:56.956Z,53.82
2024-02-14T04:55:30.491Z,55.90
2024-02-14T04:58:02.868Z,57.76
2024-02-14T05:00:35.358Z,59.47
2024-02-14T05:03:07.640Z,61.32
2024-02-14T05:05:40.287Z,67.55
2024-02-14T05:08:12.403Z,63.82
2024-02-14T05:10:44.342Z,55.82
2024-02-14T05:13:17.052Z,54.09
2024-02-14T05:15:48.983Z,56.26
2024-02-14T05:18:21.096Z,58.67
2024-02-14T05:20:53.324Z,60.22
2024-02-14T05:23:25.325Z,61.13
2024-02-14T05:25:57.256Z,66.39
2024-02-14T05:28:29.713Z,64.82
2024-02-14T05:31:04.459Z,57.32
2024-02-14T05:33:37.148Z,54.89
2024-02-14T05:36:10.373Z,56.89
2024-02-14T05:38:42.383Z,60.43
2024-02-14T05:41:14.289Z,62.14
2024-02-14T05:43:46.123Z,67.41
2024-02-14T05:46:18.032Z,64.06
2024-02-14T05:48:50.293Z,56.31
2024-02-14T05:51:22.461Z,55.40
2024-02-14T05:53:54.507Z,58.27
2024-02-14T05:56:24.951Z,60.63
2024-02-14T05:58:56.806Z,65.56
2024-02-14T06:01:30.131Z,63.85
2024-02-14T06:04:02.337Z,56.69
2024-02-14T06:06:34.717Z,55.05
2024-02-14T06:09:10.992Z,57.58
2024-02-14T06:11:43.826Z,59.42
2024-02-14T06:14:15.704Z,65.23
2024-02-14T06:16:47.632Z,63.85
2024-02-14T06:19:19.607Z,56.27
2024-02-14T06:21:50.090Z,55.26
2024-02-14T06:24:22.204Z,57.83
2024-02-14T06:26:54.146Z,60.25
2024-02-14T06:29:26.049Z,63.84
2024-02-14T06:31:58.192Z,66.89
2024-02-14T06:34:30.331Z,60.35
2024-02-14T06:37:02.533Z,53.79
2024-02-14T06:39:34.409Z,53.96
2024-02-14T06:42:07.136Z,56.59
2024-02-14T06:44:39.066Z,59.34
2024-02-14T06:47:11.124Z,61.73
2024-02-14T06:49:41.481Z,66.42
2024-02-14T06:52:13.633Z,61.82
2024-02-14T06:54:43.900Z,54.51
2024-02-14T06:57:15.790Z,54.93
2024-02-14T06:59:47.665Z,57.41
2024-02-14T07:02:19.650Z,59.46
2024-02-14T07:04:52.928Z,61.53
2024-02-14T07:07:25.189Z,66.87
2024-02-14T07:09:57.026Z,64.05
2024-02-14T07:12:31.633Z,55.75
2024-02-14T07:15:05.650Z,54.73
2024-02-14T07:17:37.808Z,58.18
2024-02-14T07:20:11.535Z,59.75
2024-02-14T07:22:43.607Z,62.10
2024-02-14T07:25:15.988Z,67.09
2024-02-14T07:27:50.877Z,60.89
2024-02-14T07:30:22.848Z,54.19
2024-02-14T07:32:55.572Z,54.82
2024-02-14T07:35:27.608Z,57.39
2024-02-14T07:37:59.794Z,59.96
2024-02-14T07:40:32.314Z,61.31
2024-02-14T07:43:04.591Z,67.11
2024-02-14T07:45:36.607Z,63.60
2024-02-14T07:48:09.882Z,55.79
2024-02-14T07:50:41.987Z,54.42
2024-02-14T07:53:13.154Z,56.54
2024-02-14T07:55:44.994Z,59.38
2024-02-14T07:58:16.860Z,62.38
2024-02-14T08:00:48.756Z,63.41
2024-02-14T08:03:19.111Z,56.39
2024-02-14T08:05:51.045Z,54.47
2024-02-14T08:08:26.389Z,57.71
2024-02-14T08:10:58.246Z,60.60
2024-02-14T08:13:30.244Z,63.01
2024-02-14T08:16:02.509Z,60.78
2024-02-14T08:18:32.965Z,54.50
2024-02-14T08:21:05.722Z,54.45
2024-02-14T08:23:40.120Z,57.90
2024-02-14T08:26:12.632Z,59.67
2024-02-14T08:28:44.530Z,60.91
2024-02-14T08:31:15.247Z,63.24
2024-02-14T08:33:47.593Z,61.04
2024-02-14T08:36:20.976Z,53.36
2024-02-14T08:38:53.360Z,54.09
2024-02-14T08:41:24.580Z,56.60
2024-02-14T08:43:56.518Z,59.00
2024-02-14T08:46:26.862Z,60.50
2024-02-14T08:48:58.976Z,61.59
2024-02-14T08:51:31.154Z,63.10
2024-02-14T08:54:01.638Z,55.74
2024-02-14T08:56:34.854Z,53.43
2024-02-14T08:59:08.213Z,55.75
2024-02-14T09:01:40.090Z,58.07
2024-02-14T09:04:10.542Z,59.80
2024-02-14T09:06:42.464Z,60.17
2024-02-14T09:09:16.971Z,60.59
2024-02-14T09:11:48.938Z,61.29
2024-02-14T09:14:19.271Z,61.42
2024-02-14T09:16:51.161Z,61.25
2024-02-14T09:19:22.909Z,61.43
2024-02-14T09:21:55.300Z,61.02
2024-02-14T09:24:27.248Z,61.19
2024-02-14T09:26:59.219Z,60.64
2024-02-14T09:29:31.629Z,60.57
2024-02-14T09:32:04.778Z,58.69
2024-02-14T09:34:37.525Z,56.26
2024-02-14T09:37:10.544Z,52.29
2024-02-14T09:39:44.530Z,49.89
2024-02-14T09:42:19.301Z,47.33
2024-02-14T09:44:55.287Z,44.09
2024-02-14T09:47:28.444Z,43.47
2024-02-14T09:50:01.873Z,43.29
2024-02-14T09:52:35.848Z,42.78
2024-02-14T09:55:11.927Z,41.51
2024-02-14T09:57:46.029Z,41.18
2024-02-14T10:00:19.388Z,42.54
2024-02-14T10:02:51.917Z,43.74
2024-02-14T10:05:24.092Z,44.51
2024-02-14T10:07:58.661Z,44.30
2024-02-14T10:10:31.269Z,44.52
2024-02-14T10:13:05.832Z,44.73
2024-02-14T10:15:37.854Z,44.98
2024-02-14T10:18:11.384Z,45.22
2024-02-14T10:20:46.336Z,45.81
2024-02-14T10:23:18.205Z,46.57
2024-02-14T10:25:51.489Z,46.80
2024-02-14T10:28:30.143Z,46.62
2024-02-14T10:31:12.324Z,45.69
2024-02-14T10:33:45.579Z,44.64
2024-02-14T10:36:20.232Z,43.19
2024-02-14T10:38:54.989Z,41.42
2024-02-14T10:41:32.942Z,39.86
2024-02-14T10:44:06.542Z,38.07
2024-02-14T10:46:42.445Z,36.66
2024-02-14T10:49:17.601Z,34.63
2024-02-14T10:51:54.784Z,33.23
2024-02-14T10:54:28.329Z,31.45
2024-02-14T10:57:06.111Z,28.95
2024-02-14T10:59:41.764Z,27.99
2024-02-14T11:02:14.876Z,28.07
2024-02-14T11:04:48.044Z,27.46
2024-02-14T11:07:24.206Z,28.53
2024-02-14T11:10:09.063Z,28.87
2024-02-14T11:12:42.868Z,28.58
2024-02-14T11:15:18.865Z,28.71
2024-02-14T11:17:53.594Z,29.07
2024-02-14T11:20:37.030Z,29.26
2024-02-14T11:23:12.886Z,29.54
2024-02-14T11:25:48.817Z,30.04
2024-02-14T11:28:22.070Z,30.18
2024-02-14T11:30:56.201Z,29.49
2024-02-14T11:33:28.344Z,28.69
2024-02-14T11:36:00.651Z,28.17
2024-02-14T11:38:32.923Z,27.80
2024-02-14T11:41:06.951Z,27.58
2024-02-14T11:43:40.994Z,27.11
2024-02-14T11:46:13.470Z,27.29
2024-02-14T11:48:48.605Z,27.41
2024-02-14T11:51:21.825Z,27.14
2024-02-14T11:53:53.995Z,25.66
2024-02-14T11:56:27.325Z,25.50
2024-02-14T11:58:59.980Z,26.43
2024-02-14T12:01:33.063Z,26.56
2024-02-14T12:04:08.322Z,27.17
2024-02-14T12:06:43.064Z,28.04
2024-02-14T12:09:15.602Z,27.90
2024-02-14T12:11:48.758Z,27.59
2024-02-14T12:14:26.183Z,27.05
2024-02-14T12:17:04.176Z,27.76
2024-02-14T12:19:39.546Z,27.70
2024-02-14T12:22:19.383Z,27.73
2024-02-14T12:24:53.716Z,27.52
2024-02-14T12:27:25.607Z,27.27
2024-02-14T12:29:57.572Z,28.33
2024-02-14T12:32:29.548Z,30.01
2024-02-14T12:35:02.306Z,31.27
2024-02-14T12:37:34.291Z,32.14
2024-02-14T12:40:08.139Z,32.63
2024-02-14T12:42:40.067Z,32.88
2024-02-14T12:45:14.658Z,33.29
2024-02-14T12:47:48.098Z,33.43
2024-02-14T12:50:21.830Z,32.99
2024-02-14T12:52:53.726Z,32.50
2024-02-14T12:55:26.768Z,32.19
2024-02-14T12:57:59.395Z,32.99
2024-02-14T13:00:33.038Z,33.96
2024-02-14T13:03:05.855Z,33.90
2024-02-14T13:05:38.970Z,33.88
2024-02-14T13:08:12.580Z,34.14
2024-02-14T13:10:44.761Z,34.51
2024-02-14T13:13:17.059Z,35.10
2024-02-14T13:15:49.017Z,35.53
2024-02-14T13:18:21.451Z,36.45
2024-02-14T13:20:58.891Z,37.27
2024-02-14T13:23:31.085Z,37.68
2024-02-14T13:26:05.315Z,37.89
2024-02-14T13:28:37.715Z,38.54
2024-02-14T13:31:10.521Z,38.54
2024-02-14T13:33:42.567Z,38.74
2024-02-14T13:36:18.340Z,38.87
2024-02-14T13:38:50.582Z,38.96
2024-02-14T13:41:23.042Z,38.83
2024-02-14T13:43:54.930Z,38.93
2024-02-14T13:46:27.916Z,38.75
2024-02-14T13:48:59.843Z,38.83
2024-02-14T13:51:31.988Z,38.85
2024-02-14T13:54:03.870Z,38.51
2024-02-14T13:56:35.843Z,38.25
2024-02-14T13:59:07.760Z,37.96
2024-02-14T14:01:40.309Z,38.17
2024-02-14T14:04:12.965Z,38.12
2024-02-14T14:06:45.067Z,38.08
2024-02-14T14:09:17.215Z,38.09
2024-02-14T14:11:51.420Z,38.43
2024-02-14T14:14:23.308Z,38.91
2024-02-14T14:16:55.318Z,39.21
2024-02-14T14:19:27.596Z,39.67
2024-02-14T14:22:00.106Z,40.36
2024-02-14T14:24:32.985Z,40.83
2024-02-14T14:27:05.111Z,41.27
2024-02-14T14:29:37.015Z,41.36
2024-02-14T14:32:10.521Z,41.53
2024-02-14T14:34:42.502Z,41.95
2024-02-14T14:37:14.475Z,42.41
2024-02-14T14:39:46.338Z,42.88
2024-02-14T14:42:19.531Z,43.22
2024-02-14T14:44:52.613Z,43.85
2024-02-14T14:47:24.568Z,43.90
2024-02-14T14:49:56.541Z,44.62
2024-02-14T14:52:28.610Z,45.01
2024-02-14T14:55:01.031Z,45.09
2024-02-14T14:57:33.101Z,45.04
2024-02-14T15:00:05.995Z,45.72
2024-02-14T15:02:38.230Z,46.20
2024-02-14T15:05:11.936Z,46.06
2024-02-14T15:07:44.169Z,46.33
2024-02-14T15:10:16.184Z,46.58
2024-02-14T15:12:48.082Z,46.40
2024-02-14T15:15:21.161Z,46.34
2024-02-14T15:17:53.368Z,46.24
2024-02-14T15:20:25.311Z,46.74
2024-02-14T15:22:57.262Z,47.00
2024-02-14T15:25:29.644Z,47.31
2024-02-14T15:28:01.610Z,47.27
2024-02-14T15:30:51.542Z,48.02
2024-02-14T15:33:24.761Z,48.42
2024-02-14T15:35:58.989Z,48.40
2024-02-14T15:38:31.229Z,49.19
2024-02-14T15:41:04.531Z,48.91
2024-02-14T15:43:36.902Z,49.48
2024-02-14T15:46:08.996Z,49.30
2024-02-14T15:48:42.527Z,49.76
2024-02-14T15:51:18.937Z,49.89
2024-02-14T15:53:50.996Z,50.58
2024-02-14T15:56:22.895Z,50.69
2024-02-14T15:58:54.819Z,50.69
2024-02-14T16:01:26.682Z,50.86
2024-02-14T16:03:58.672Z,51.20
2024-02-14T16:06:30.680Z,51.43
2024-02-14T16:09:02.821Z,51.31
2024-02-14T16:11:35.355Z,51.07
2024-02-14T16:14:07.317Z,51.39
2024-02-14T16:16:39.244Z,51.42
2024-02-14T16:19:11.776Z,51.65
2024-02-14T16:21:43.750Z,51.79
2024-02-14T16:24:16.656Z,52.14
2024-02-14T16:26:48.613Z,51.73
2024-02-14T16:29:20.523Z,51.85
2024-02-14T16:31:52.423Z,51.79
2024-02-14T16:34:24.399Z,52.00
2024-02-14T16:36:56.952Z,52.25
2024-02-14T16:39:39.828Z,52.06
2024-02-14T16:42:16.387Z,52.54
2024-02-14T16:44:49.196Z,52.64
2024-02-14T16:47:21.232Z,52.68
2024-02-14T16:49:53.280Z,52.82
2024-02-14T16:52:25.262Z,52.68
2024-02-14T16:54:57.248Z,52.95
2024-02-14T16:57:29.271Z,53.00
2024-02-14T17:00:01.476Z,53.15
2024-02-14T17:02:33.580Z,53.30
2024-02-14T17:05:05.852Z,53.13
2024-02-14T17:07:37.936Z,53.28
2024-02-14T17:10:11.749Z,53.25
2024-02-14T17:12:43.681Z,53.42
2024-02-14T17:15:16.016Z,53.19
2024-02-14T17:17:48.033Z,53.30
2024-02-14T17:20:20.893Z,53.45
2024-02-14T17:22:53.045Z,53.16
2024-02-14T17:25:25.683Z,53.32
2024-02-14T17:27:58.028Z,53.63
2024-02-14T17:30:30.033Z,53.59
2024-02-14T17:33:03.411Z,53.34
2024-02-14T17:35:35.555Z,53.60
2024-02-14T17:38:07.895Z,53.70
2024-02-14T17:40:39.813Z,53.90
2024-02-14T17:43:11.716Z,54.04
2024-02-14T17:45:43.926Z,54.42
2024-02-14T17:48:15.932Z,53.96
2024-02-14T17:50:50.333Z,54.44
2024-02-14T17:53:22.262Z,54.47
2024-02-14T17:55:54.432Z,53.92
2024-02-14T17:58:26.937Z,54.92
2024-02-14T18:00:59.678Z,54.82
2024-02-14T18:03:31.623Z,54.56
2024-02-14T18:06:04.403Z,55.05
2024-02-14T18:08:36.899Z,55.10
2024-02-14T18:11:09.088Z,54.98
2024-02-14T18:13:41.102Z,55.29
2024-02-14T18:16:13.021Z,55.53
2024-02-14T18:18:47.046Z,55.42
2024-02-14T18:21:20.856Z,55.42
2024-02-14T18:23:52.720Z,56.01
2024-02-14T18:26:25.144Z,55.91
2024-02-14T18:28:56.972Z,56.10
2024-02-14T18:31:29.498Z,56.37
2024-02-14T18:34:01.591Z,56.62
2024-02-14T18:36:33.619Z,56.55
2024-02-14T18:39:07.434Z,56.38
2024-02-14T18:41:40.739Z,56.21
2024-02-14T18:44:12.581Z,56.45
2024-02-14T18:46:48.168Z,56.57
2024-02-14T18:49:20.329Z,56.74
2024-02-14T18:51:52.553Z,56.89
2024-02-14T18:54:26.028Z,57.17
2024-02-14T18:56:57.982Z,57.28
2024-02-14T18:59:29.836Z,57.00
2024-02-14T19:02:01.730Z,57.42
2024-02-14T19:04:34.451Z,57.27
2024-02-14T19:07:06.768Z,57.47
2024-02-14T19:09:38.611Z,57.60
2024-02-14T19:12:11.092Z,57.52
2024-02-14T19:14:44.537Z,57.72
2024-02-14T19:17:16.538Z,57.45
2024-02-14T19:19:48.497Z,57.66
2024-02-14T19:22:20.526Z,57.88
2024-02-14T19:24:52.455Z,57.73
2024-02-14T19:27:24.429Z,57.55
2024-02-14T19:29:56.302Z,57.66
2024-02-14T19:32:28.438Z,58.08
2024-02-14T19:35:01.269Z,58.20
2024-02-14T19:37:33.367Z,58.20
2024-02-14T19:40:07.752Z,58.25
2024-02-14T19:42:40.038Z,58.14
2024-02-14T19:45:13.519Z,58.41
2024-02-14T19:47:47.331Z,57.96
2024-02-14T19:50:20.920Z,58.05
2024-02-14T19:52:53.323Z,58.20
2024-02-14T19:55:25.455Z,58.20
2024-02-14T19:57:57.298Z,58.18
2024-02-14T20:00:33.128Z,58.75
2024-02-14T20:03:05.332Z,58.75
2024-02-14T20:05:39.304Z,58.75
2024-02-14T20:08:12.951Z,58.81
2024-02-14T20:10:44.947Z,58.79
2024-02-14T20:13:16.949Z,58.97
2024-02-14T20:15:49.604Z,59.22
2024-02-14T20:18:21.679Z,59.01
2024-02-14T20:20:53.708Z,59.33
2024-02-14T20:23:27.365Z,59.58
2024-02-14T20:25:59.481Z,59.78
2024-02-14T20:28:31.348Z,59.61
2024-02-14T20:31:03.295Z,60.00
2024-02-14T20:33:35.353Z,59.65
2024-02-14T20:36:09.647Z,60.22
2024-02-14T20:38:41.707Z,59.88
2024-02-14T20:41:16.948Z,59.88
2024-02-14T20:43:48.891Z,59.95
2024-02-14T20:46:21.422Z,59.85
2024-02-14T20:48:54.827Z,60.15
2024-02-14T20:51:29.369Z,60.37
2024-02-14T20:54:01.339Z,60.21
2024-02-14T20:56:33.213Z,60.75
2024-02-14T20:59:11.070Z,60.42
2024-02-14T21:01:48.208Z,60.67
2024-02-14T21:04:20.176Z,60.30
2024-02-14T21:06:52.182Z,60.55
2024-02-14T21:09:24.097Z,60.79
2024-02-14T21:12:30.182Z,61.18
2024-02-14T21:15:02.520Z,61.01
2024-02-14T21:17:34.679Z,60.95
2024-02-14T21:20:08.123Z,61.08
2024-02-14T21:22:40.131Z,60.86
2024-02-14T21:25:13.734Z,61.32
2024-02-14T21:27:46.862Z,61.14
2024-02-14T21:30:19.315Z,61.11
2024-02-14T21:32:51.296Z,61.50
2024-02-14T21:35:23.764Z,61.24
2024-02-14T21:37:56.209Z,61.35
2024-02-14T21:40:28.138Z,61.64
2024-02-14T21:43:00.136Z,61.62
2024-02-14T21:45:32.054Z,61.86
2024-02-14T21:48:04.707Z,61.70
2024-02-14T21:50:37.099Z,61.79
2024-02-14T21:53:08.919Z,62.12
2024-02-14T21:56:00.876Z,62.25
2024-02-14T21:58:33.128Z,64.00
2024-02-14T22:01:05.252Z,63.69
2024-02-14T22:03:37.359Z,55.25
2024-02-14T22:06:09.704Z,51.91
2024-02-14T22:08:41.795Z,53.19
2024-02-14T22:11:14.825Z,54.65
2024-02-14T22:13:47.686Z,55.55
2024-02-14T22:16:21.193Z,57.13
2024-02-14T22:18:54.061Z,58.12
2024-02-14T22:21:26.493Z,59.03
2024-02-14T22:23:58.624Z,59.26
2024-02-14T22:26:30.844Z,60.37
2024-02-14T22:29:03.759Z,60.96
2024-02-14T22:31:37.167Z,61.49
2024-02-14T22:34:11.729Z,61.72
2024-02-14T22:36:43.870Z,62.61
2024-02-14T22:39:16.547Z,68.46
2024-02-14T22:41:50.380Z,60.04
2024-02-14T22:44:22.694Z,51.13
2024-02-14T22:46:54.667Z,51.19
2024-02-14T22:49:26.666Z,53.16
2024-02-14T22:51:59.403Z,54.89
2024-02-14T22:54:31.329Z,56.80
2024-02-14T22:57:04.564Z,58.25
2024-02-14T22:59:36.931Z,59.81
2024-02-14T23:02:09.864Z,59.73
2024-02-14T23:04:41.849Z,59.95
2024-02-14T23:07:13.818Z,61.59
2024-02-14T23:09:45.945Z,63.43
2024-02-14T23:12:18.825Z,61.79
2024-02-14T23:14:50.849Z,53.98
2024-02-14T23:17:22.844Z,52.54
2024-02-14T23:19:54.808Z,54.98
2024-02-14T23:22:26.825Z,56.57
2024-02-14T23:24:58.745Z,58.07
2024-02-14T23:27:30.706Z,58.38
2024-02-14T23:30:02.731Z,60.14
2024-02-14T23:32:34.831Z,61.61
2024-02-14T23:35:10.838Z,65.91
2024-02-14T23:37:44.872Z,63.22
2024-02-14T23:40:17.180Z,53.17
2024-02-14T23:42:49.141Z,51.92
2024-02-14T23:45:21.132Z,53.47
2024-02-14T23:47:54.488Z,55.97
2024-02-14T23:50:28.601Z,57.62
2024-02-14T23:53:00.920Z,59.06
2024-02-14T23:55:32.777Z,60.41
2024-02-14T23:58:05.177Z,60.46
